Time;durP1;ratioP1;P1;durP2;ratioP2;P2;SDS_P1;SDS_P2;PMS_P1;PMS_P2;Temp;Humidity;BMP_temperature;BMP_pressure;BME280_temperature;BME280_humidity;BME280_pressure;Samples;Min_cycle;Max_cycle;Signal;HPM_P1;HPM_P2
2022/01/11 00:00:35;;;;;;;10.77;6.22;;;2.00;1.00;;;;;;5053724;28;20592;-77
2022/01/11 00:03:42;;;;;;;12.95;6.60;;;2.10;1.00;;;;;;5067072;28;20172;-78
2022/01/11 00:06:29;;;;;;;8.55;5.70;;;2.10;1.00;;;;;;5065995;28;20232;-78
2022/01/11 00:09:00;;;;;;;18.88;7.05;;;2.30;1.00;;;;;;5035559;28;20160;-75
2022/01/11 00:11:30;;;;;;;19.08;6.93;;;2.30;1.00;;;;;;5053620;28;20172;-76
2022/01/11 00:14:01;;;;;;;17.65;7.10;;;2.30;1.00;;;;;;5068655;28;20232;-75
2022/01/11 00:16:42;;;;;;;11.73;5.80;;;2.30;1.00;;;;;;5073378;28;20163;-75
2022/01/11 00:19:14;;;;;;;8.85;5.57;;;2.40;1.00;;;;;;5069138;28;20195;-75
2022/01/11 00:21:45;;;;;;;13.13;6.82;;;2.50;1.00;;;;;;5065327;28;20174;-75
2022/01/11 00:24:29;;;;;;;17.23;6.72;;;2.50;1.00;;;;;;5074228;28;20151;-75
2022/01/11 00:27:00;;;;;;;13.48;6.47;;;2.50;1.00;;;;;;5058590;28;20170;-75
2022/01/11 00:29:41;;;;;;;13.18;6.97;;;2.60;1.00;;;;;;5059639;28;20271;-76
2022/01/11 00:32:12;;;;;;;12.00;5.75;;;2.60;1.00;;;;;;5060730;28;20186;-76
2022/01/11 00:35:10;;;;;;;11.30;5.60;;;2.60;1.00;;;;;;5064393;28;20650;-76
2022/01/11 00:37:36;;;;;;;10.70;5.90;;;2.70;1.00;;;;;;5034195;28;20156;-76
2022/01/11 00:40:04;;;;;;;5.87;4.73;;;2.70;1.00;;;;;;5062405;28;20583;-76
2022/01/11 00:42:37;;;;;;;6.68;5.18;;;2.70;1.00;;;;;;5063708;28;20892;-75
2022/01/11 00:45:05;;;;;;;9.20;5.93;;;2.70;1.00;;;;;;5067114;28;20516;-75
2022/01/11 00:47:37;;;;;;;10.05;5.32;;;2.70;1.00;;;;;;5053438;28;20183;-75
2022/01/11 00:50:08;;;;;;;9.25;5.30;;;2.70;1.00;;;;;;5067580;28;20519;-75
2022/01/11 00:52:36;;;;;;;10.45;5.28;;;2.70;1.00;;;;;;5053738;28;20532;-77
2022/01/11 00:55:07;;;;;;;7.38;4.50;;;2.80;1.00;;;;;;5058123;28;20655;-79
2022/01/11 00:57:36;;;;;;;7.07;4.95;;;2.70;1.00;;;;;;5061369;28;20613;-78
2022/01/11 01:00:08;;;;;;;6.05;3.97;;;2.70;1.00;;;;;;5057093;28;20741;-78
2022/01/11 01:02:43;;;;;;;8.07;3.80;;;2.70;1.00;;;;;;5053558;28;20627;-78
2022/01/11 01:05:17;;;;;;;7.50;4.65;;;2.70;1.00;;;;;;5063482;28;20563;-78
2022/01/11 01:07:55;;;;;;;9.48;4.03;;;2.70;1.00;;;;;;5053401;28;20162;-78
2022/01/11 01:10:35;;;;;;;5.63;3.65;;;2.70;1.00;;;;;;5053047;28;20168;-78
2022/01/11 01:13:36;;;;;;;5.57;4.00;;;2.70;1.00;;;;;;5066694;28;20178;-77
2022/01/11 01:16:13;;;;;;;7.00;4.05;;;2.70;1.00;;;;;;5066491;28;20575;-78
2022/01/11 01:18:54;;;;;;;5.97;3.63;;;2.60;1.00;;;;;;5052962;28;20192;-78
2022/01/11 01:21:24;;;;;;;7.03;4.45;;;2.60;1.00;;;;;;5060232;28;20194;-78
2022/01/11 01:23:54;;;;;;;9.60;4.75;;;2.60;1.00;;;;;;5058630;28;20262;-78
2022/01/11 01:26:31;;;;;;;6.40;4.60;;;2.60;1.00;;;;;;5060965;28;20618;-78
2022/01/11 01:29:01;;;;;;;5.93;4.05;;;2.50;1.00;;;;;;5076310;28;20158;-77
2022/01/11 01:31:28;;;;;;;14.75;4.65;;;2.50;1.00;;;;;;5066209;28;20183;-77
2022/01/11 01:33:59;;;;;;;10.65;5.65;;;2.50;1.00;;;;;;5062428;28;20636;-78
2022/01/11 01:36:26;;;;;;;14.57;5.10;;;2.40;1.00;;;;;;5063858;28;20860;-78
2022/01/11 01:38:52;;;;;;;8.55;4.60;;;2.40;1.00;;;;;;5070220;28;20196;-78
2022/01/11 01:41:20;;;;;;;6.88;4.90;;;2.40;1.00;;;;;;5055993;28;20180;-78
2022/01/11 01:43:59;;;;;;;11.80;5.05;;;2.40;1.00;;;;;;5070031;28;20199;-77
2022/01/11 01:46:37;;;;;;;10.38;5.70;;;2.40;1.00;;;;;;5057972;28;20247;-78
2022/01/11 01:49:22;;;;;;;9.68;5.75;;;2.40;1.00;;;;;;5066987;28;20248;-78
2022/01/11 01:51:55;;;;;;;5.38;4.57;;;2.40;1.00;;;;;;5054585;28;20195;-78
2022/01/11 01:54:25;;;;;;;8.48;5.05;;;2.40;1.00;;;;;;5056642;28;20278;-78
2022/01/11 01:56:51;;;;;;;9.18;5.43;;;2.40;1.00;;;;;;5050614;28;20649;-78
2022/01/11 01:59:17;;;;;;;10.57;6.70;;;2.30;1.00;;;;;;5062191;28;20219;-78
2022/01/11 02:01:46;;;;;;;7.37;5.20;;;2.30;1.00;;;;;;5058484;28;20176;-78
2022/01/11 02:04:19;;;;;;;9.45;5.55;;;2.30;1.00;;;;;;5068351;28;20422;-77
2022/01/11 02:06:55;;;;;;;9.95;5.63;;;2.30;1.00;;;;;;5075888;28;20683;-78
2022/01/11 02:09:25;;;;;;;19.38;6.47;;;2.30;1.00;;;;;;5073413;28;20565;-77
2022/01/11 02:11:50;;;;;;;12.45;6.80;;;2.30;1.00;;;;;;5060986;28;20188;-77
2022/01/11 02:14:16;;;;;;;11.00;5.37;;;2.30;1.00;;;;;;5069335;28;20229;-78
2022/01/11 02:16:56;;;;;;;16.10;5.93;;;2.20;1.00;;;;;;5066281;28;20198;-77
2022/01/11 02:19:24;;;;;;;10.60;5.95;;;2.20;1.00;;;;;;5062077;28;20444;-78
2022/01/11 02:21:55;;;;;;;11.63;5.68;;;2.20;1.00;;;;;;5061351;28;20191;-78
2022/01/11 02:24:25;;;;;;;14.60;6.35;;;2.20;1.00;;;;;;5044082;28;20229;-75
2022/01/11 02:26:54;;;;;;;6.80;4.38;;;2.10;1.00;;;;;;5056393;28;20160;-75
2022/01/11 02:29:31;;;;;;;12.45;5.82;;;2.10;1.00;;;;;;5067873;28;20531;-75
2022/01/11 02:32:07;;;;;;;12.40;5.85;;;2.00;1.00;;;;;;5066257;28;20266;-76
2022/01/11 02:34:37;;;;;;;9.20;5.80;;;2.00;1.00;;;;;;5065504;28;20281;-76
2022/01/11 02:37:07;;;;;;;7.05;4.70;;;2.00;1.00;;;;;;5057301;28;20191;-76
2022/01/11 02:39:37;;;;;;;11.27;6.03;;;2.00;1.00;;;;;;5066921;28;20744;-76
2022/01/11 02:42:03;;;;;;;8.93;5.50;;;2.00;1.00;;;;;;5068688;28;20179;-76
2022/01/11 02:44:31;;;;;;;12.45;5.80;;;1.80;1.00;;;;;;5067712;28;20175;-75
2022/01/11 02:46:57;;;;;;;12.40;5.82;;;1.90;1.00;;;;;;5062680;28;20203;-76
2022/01/11 02:49:25;;;;;;;9.43;5.35;;;1.90;1.00;;;;;;5067565;28;20179;-75
2022/01/11 02:51:55;;;;;;;11.70;5.65;;;1.90;1.00;;;;;;5067496;28;20199;-76
2022/01/11 02:54:24;;;;;;;14.10;6.82;;;1.90;1.00;;;;;;5055506;28;20578;-76
2022/01/11 02:56:55;;;;;;;8.02;6.00;;;1.80;1.00;;;;;;5048060;28;20179;-76
2022/01/11 02:59:24;;;;;;;8.77;6.25;;;1.90;1.00;;;;;;5059280;28;20534;-76
2022/01/11 03:01:55;;;;;;;8.30;5.63;;;1.90;1.00;;;;;;5062426;28;20187;-75
2022/01/11 03:04:28;;;;;;;9.65;6.35;;;1.80;1.00;;;;;;5056312;28;20290;-75
2022/01/11 03:06:56;;;;;;;18.77;6.43;;;1.80;1.00;;;;;;5065966;28;20172;-75
2022/01/11 03:10:02;;;;;;;15.82;7.30;;;1.80;1.00;;;;;;5068412;28;20173;-78
2022/01/11 03:12:31;;;;;;;12.07;7.22;;;1.90;1.00;;;;;;5081613;28;20176;-77
2022/01/11 03:15:08;;;;;;;12.25;6.90;;;1.90;1.00;;;;;;5074687;28;20173;-78
2022/01/11 03:17:34;;;;;;;14.10;7.72;;;2.00;1.00;;;;;;5061267;28;20175;-78
2022/01/11 03:20:01;;;;;;;12.80;7.57;;;2.00;1.00;;;;;;5080236;28;20841;-78
2022/01/11 03:22:37;;;;;;;14.07;7.53;;;2.10;1.00;;;;;;5054900;28;20520;-78
2022/01/11 03:25:07;;;;;;;22.10;7.35;;;2.20;1.00;;;;;;5066046;28;20183;-76
2022/01/11 03:27:33;;;;;;;15.68;7.07;;;2.20;1.00;;;;;;5061215;28;20204;-76
2022/01/11 03:30:08;;;;;;;17.73;8.20;;;2.30;1.00;;;;;;5073006;28;20179;-76
2022/01/11 03:32:37;;;;;;;11.93;6.65;;;2.30;1.00;;;;;;5049715;28;20666;-76
2022/01/11 03:35:08;;;;;;;19.67;7.60;;;2.30;1.00;;;;;;5054156;28;20699;-75
2022/01/11 03:37:54;;;;;;;14.77;6.68;;;2.40;1.00;;;;;;5063459;28;20183;-75
2022/01/11 03:40:26;;;;;;;13.02;6.95;;;2.40;1.00;;;;;;5053927;28;20211;-78
2022/01/11 03:42:55;;;;;;;18.70;7.72;;;2.40;1.00;;;;;;5060936;28;20528;-78
2022/01/11 03:45:26;;;;;;;14.02;7.60;;;2.50;1.00;;;;;;5060708;28;20542;-78
2022/01/11 03:47:57;;;;;;;14.25;7.97;;;2.50;1.00;;;;;;5060436;28;20243;-78
2022/01/11 03:50:26;;;;;;;13.75;8.15;;;2.50;1.00;;;;;;5073252;28;20626;-78
2022/01/11 03:53:00;;;;;;;15.80;7.82;;;2.60;1.00;;;;;;5060156;28;20180;-78
2022/01/11 03:56:10;;;;;;;10.45;7.13;;;2.60;1.00;;;;;;5064982;28;20214;-78
2022/01/11 03:58:50;;;;;;;19.50;7.70;;;2.60;1.00;;;;;;5053679;28;20302;-77
2022/01/11 04:01:20;;;;;;;12.73;7.13;;;2.60;1.00;;;;;;5056372;28;20170;-77
2022/01/11 04:03:55;;;;;;;21.17;7.82;;;2.60;1.00;;;;;;5062864;28;20520;-78
2022/01/11 04:06:20;;;;;;;13.90;7.10;;;2.70;1.00;;;;;;5067066;28;20187;-77
2022/01/11 04:08:49;;;;;;;13.70;7.73;;;2.70;1.00;;;;;;5065866;28;20179;-78
2022/01/11 04:11:16;;;;;;;14.82;7.18;;;2.70;1.00;;;;;;5058957;28;20233;-78
2022/01/11 04:13:43;;;;;;;24.67;7.22;;;2.70;1.00;;;;;;5056056;28;20207;-78
2022/01/11 04:16:19;;;;;;;12.60;7.60;;;2.80;1.00;;;;;;5065011;28;20637;-77
2022/01/11 04:18:55;;;;;;;12.95;7.40;;;2.70;1.00;;;;;;5068004;28;20328;-78
2022/01/11 04:21:20;;;;;;;10.10;7.50;;;2.80;1.00;;;;;;5064245;28;20253;-78
2022/01/11 04:23:49;;;;;;;14.57;7.23;;;2.80;1.00;;;;;;5063716;28;20639;-78
2022/01/11 04:26:25;;;;;;;11.68;7.47;;;2.80;1.00;;;;;;5064167;28;20634;-78
2022/01/11 04:28:54;;;;;;;15.40;7.57;;;2.80;1.00;;;;;;5066951;28;20194;-79
2022/01/11 04:31:37;;;;;;;15.10;6.75;;;2.80;1.00;;;;;;5068800;28;20524;-78
2022/01/11 04:37:37;;;;;;;12.93;6.75;;;2.80;1.00;;;;;;5047176;28;20202;-78
2022/01/11 04:40:14;;;;;;;17.23;6.65;;;2.80;1.00;;;;;;5071073;28;20218;-79
2022/01/11 04:43:00;;;;;;;11.35;6.80;;;2.80;1.00;;;;;;5064254;28;20179;-78
2022/01/11 04:45:26;;;;;;;20.90;7.93;;;2.80;1.00;;;;;;5053118;28;20306;-78
2022/01/11 04:47:56;;;;;;;13.13;7.70;;;2.80;1.00;;;;;;5061159;28;20229;-79
2022/01/11 04:50:26;;;;;;;13.13;5.70;;;2.90;1.00;;;;;;5060832;28;20413;-78
2022/01/11 04:52:55;;;;;;;18.92;6.93;;;2.90;1.00;;;;;;5061063;28;20194;-78
2022/01/11 04:55:21;;;;;;;15.48;7.93;;;2.90;1.00;;;;;;5061686;28;20179;-77
2022/01/11 04:58:18;;;;;;;16.57;7.37;;;3.00;1.00;;;;;;5071424;28;20163;-77
2022/01/11 05:00:50;;;;;;;15.02;6.43;;;3.00;1.00;;;;;;5052993;28;20415;-78
2022/01/11 05:03:19;;;;;;;12.60;5.55;;;3.00;1.00;;;;;;5057425;28;20156;-78
2022/01/11 05:05:46;;;;;;;15.63;6.68;;;3.00;1.00;;;;;;5069317;28;20187;-77
2022/01/11 05:08:13;;;;;;;10.70;6.57;;;3.00;1.00;;;;;;5065123;28;20184;-79
2022/01/11 05:11:06;;;;;;;11.60;6.10;;;3.10;1.00;;;;;;5073798;28;20707;-78
2022/01/11 05:13:32;;;;;;;13.02;6.70;;;3.10;1.00;;;;;;5077009;28;20190;-78
2022/01/11 05:16:02;;;;;;;12.13;7.30;;;3.10;1.00;;;;;;5063187;28;20190;-78
2022/01/11 05:18:31;;;;;;;7.90;5.78;;;3.00;1.00;;;;;;5074463;28;20428;-78
2022/01/11 05:21:24;;;;;;;9.27;5.53;;;3.10;1.00;;;;;;5058830;28;20186;-78
2022/01/11 05:23:55;;;;;;;12.82;6.57;;;3.10;1.00;;;;;;5072215;28;20228;-78
2022/01/11 05:26:20;;;;;;;8.50;5.18;;;3.10;1.00;;;;;;5066404;28;20668;-78
2022/01/11 05:28:49;;;;;;;11.87;7.37;;;3.10;1.00;;;;;;5063500;28;20183;-78
2022/01/11 05:31:19;;;;;;;15.52;6.78;;;3.10;1.00;;;;;;5066972;28;20531;-78
2022/01/11 05:33:49;;;;;;;13.30;6.07;;;3.10;1.00;;;;;;5052114;28;20192;-78
2022/01/11 05:36:31;;;;;;;8.63;5.35;;;3.20;1.00;;;;;;5058987;28;20650;-78
2022/01/11 05:39:01;;;;;;;12.73;6.85;;;3.20;1.00;;;;;;5071528;28;20210;-78
2022/01/11 05:41:27;;;;;;;12.88;6.75;;;3.20;1.00;;;;;;5065084;28;20788;-75
2022/01/11 05:43:52;;;;;;;10.70;6.77;;;3.20;1.00;;;;;;5063876;28;20274;-77
2022/01/11 05:46:18;;;;;;;15.53;6.30;;;3.20;1.00;;;;;;5062283;28;20247;-76
2022/01/11 05:48:49;;;;;;;13.97;6.57;;;3.20;1.00;;;;;;5063656;28;20179;-76
2022/01/11 05:51:15;;;;;;;11.70;6.22;;;3.20;1.00;;;;;;5067679;28;20209;-76
2022/01/11 05:53:44;;;;;;;11.50;6.30;;;3.20;1.00;;;;;;5062408;28;20183;-75
2022/01/11 05:56:25;;;;;;;16.77;7.00;;;3.30;1.00;;;;;;5062925;28;20978;-77
2022/01/11 05:59:18;;;;;;;10.57;6.55;;;3.30;1.00;;;;;;5057176;28;20211;-77
2022/01/11 06:01:44;;;;;;;11.30;6.10;;;;;;;;;;5039855;28;20167;-78
2022/01/11 06:04:25;;;;;;;12.48;5.82;;;3.30;1.00;;;;;;5069934;28;20174;-77
2022/01/11 06:06:55;;;;;;;11.83;6.60;;;3.30;1.00;;;;;;5059220;28;20176;-78
2022/01/11 06:09:26;;;;;;;9.90;6.20;;;3.30;1.00;;;;;;5071920;28;20978;-77
2022/01/11 06:11:56;;;;;;;9.45;6.18;;;3.30;1.00;;;;;;5066306;28;20176;-77
2022/01/11 06:14:22;;;;;;;13.55;6.32;;;3.30;1.00;;;;;;5068526;28;20728;-78
2022/01/11 06:16:55;;;;;;;13.47;6.97;;;3.30;1.00;;;;;;5066100;28;20187;-78
2022/01/11 06:19:26;;;;;;;9.40;6.23;;;3.30;1.00;;;;;;5062373;28;20601;-78
2022/01/11 06:21:55;;;;;;;10.88;5.95;;;3.30;1.00;;;;;;5063518;28;20525;-77
2022/01/11 06:24:25;;;;;;;13.93;6.60;;;3.20;1.00;;;;;;5061123;28;20206;-78
2022/01/11 06:26:55;;;;;;;10.90;6.55;;;3.30;1.00;;;;;;5063053;28;20217;-77
2022/01/11 06:29:42;;;;;;;11.30;6.23;;;3.30;1.00;;;;;;5049616;28;20179;-75
2022/01/11 06:32:08;;;;;;;13.77;7.28;;;3.20;1.00;;;;;;5060697;28;20933;-75
2022/01/11 06:34:38;;;;;;;12.87;7.30;;;3.30;1.00;;;;;;5054484;28;20188;-75
2022/01/11 06:37:03;;;;;;;8.85;6.15;;;3.40;1.00;;;;;;5068115;28;20425;-75
2022/01/11 06:39:36;;;;;;;11.70;6.00;;;3.30;1.00;;;;;;5064037;28;20199;-75
2022/01/11 06:42:02;;;;;;;7.72;5.35;;;3.40;1.00;;;;;;5050534;28;20188;-75
2022/01/11 06:44:32;;;;;;;9.20;5.32;;;3.40;1.00;;;;;;5054839;28;20191;-75
2022/01/11 06:46:58;;;;;;;12.93;6.40;;;3.40;1.00;;;;;;5061838;28;20179;-76
2022/01/11 06:49:23;;;;;;;12.80;6.40;;;3.40;1.00;;;;;;5068198;28;20175;-76
2022/01/11 06:51:49;;;;;;;15.03;5.67;;;3.40;1.00;;;;;;5069888;28;20199;-75
2022/01/11 06:54:15;;;;;;;15.40;6.33;;;;;;;;;;5069192;28;20190;-75
2022/01/11 06:56:41;;;;;;;9.07;6.20;;;;;;;;;;5064002;28;20229;-77
2022/01/11 06:59:07;;;;;;;11.53;5.67;;;;;;;;;;5061455;28;20457;-77
2022/01/11 07:01:33;;;;;;;8.90;5.65;;;3.40;1.00;;;;;;5070843;28;20402;-78
2022/01/11 07:03:59;;;;;;;9.65;6.25;;;3.50;1.00;;;;;;5062135;28;20697;-78
2022/01/11 07:06:25;;;;;;;14.60;6.10;;;3.50;1.00;;;;;;5061086;28;20179;-78
2022/01/11 07:08:50;;;;;;;11.07;6.53;;;3.40;1.00;;;;;;5061281;28;20664;-78
2022/01/11 07:11:16;;;;;;;14.97;6.63;;;3.50;1.00;;;;;;5062217;28;20175;-75
2022/01/11 07:13:41;;;;;;;10.20;6.20;;;3.50;1.00;;;;;;5061059;28;20262;-75
2022/01/11 07:16:07;;;;;;;14.27;6.90;;;3.50;1.00;;;;;;5060856;28;20194;-76
2022/01/11 07:18:33;;;;;;;13.60;6.43;;;3.50;1.00;;;;;;5058301;28;20232;-76
2022/01/11 07:20:59;;;;;;;11.20;6.33;;;;;;;;;;5059715;28;20179;-76
2022/01/11 07:23:25;;;;;;;10.30;5.53;;;;;;;;;;5055629;28;20194;-76
2022/01/11 07:25:50;;;;;;;8.80;5.72;;;3.60;1.00;;;;;;5062454;28;20196;-76
2022/01/11 07:28:16;;;;;;;11.17;6.10;;;;;;;;;;5056153;28;20171;-76
2022/01/11 07:30:43;;;;;;;9.87;6.10;;;;;;;;;;5065223;28;20264;-75
2022/01/11 07:33:08;;;;;;;12.43;6.95;;;3.50;1.00;;;;;;5057868;28;20430;-76
2022/01/11 07:35:35;;;;;;;13.33;6.70;;;;;;;;;;5068615;28;20175;-76
2022/01/11 07:38:00;;;;;;;13.55;7.13;;;3.60;1.00;;;;;;5072034;28;20168;-75
2022/01/11 07:40:26;;;;;;;14.10;6.63;;;3.60;1.00;;;;;;5057175;28;20207;-77
2022/01/11 07:42:52;;;;;;;11.30;6.53;;;3.60;1.00;;;;;;5054186;28;20595;-75
2022/01/11 07:45:17;;;;;;;15.47;6.57;;;3.60;1.00;;;;;;5053615;28;20737;-75
2022/01/11 07:47:43;;;;;;;13.57;6.60;;;3.60;1.00;;;;;;5064480;28;20209;-74
2022/01/11 07:50:10;;;;;;;10.97;5.90;;;3.60;1.00;;;;;;5059864;28;20186;-75
2022/01/11 07:52:35;;;;;;;12.50;6.85;;;3.60;1.00;;;;;;5067536;28;20947;-75
2022/01/11 07:55:02;;;;;;;12.20;7.20;;;;;;;;;;5070135;28;20202;-75
2022/01/11 07:57:28;;;;;;;11.70;6.57;;;3.70;1.00;;;;;;5047117;28;20208;-76
2022/01/11 07:59:54;;;;;;;11.20;6.18;;;3.70;1.00;;;;;;5070817;28;20241;-76
2022/01/11 08:02:21;;;;;;;10.82;6.22;;;3.70;1.00;;;;;;5069915;28;20179;-76
2022/01/11 08:04:47;;;;;;;8.68;5.50;;;;;;;;;;5069392;28;20201;-76
2022/01/11 08:07:13;;;;;;;12.87;6.07;;;;;;;;;;5062544;28;20179;-75
2022/01/11 08:09:39;;;;;;;10.33;6.20;;;;;;;;;;5070675;28;20466;-75
2022/01/11 08:12:05;;;;;;;8.33;5.43;;;3.70;1.00;;;;;;5065383;28;20501;-77
2022/01/11 08:14:31;;;;;;;8.90;6.38;;;3.80;1.00;;;;;;5055862;28;20512;-77
2022/01/11 08:16:57;;;;;;;16.83;6.87;;;3.90;1.00;;;;;;5063922;28;20270;-77
2022/01/11 08:19:25;;;;;;;22.70;6.37;;;3.90;1.00;;;;;;5069408;28;20198;-77
2022/01/11 08:21:54;;;;;;;13.38;6.32;;;3.90;1.00;;;;;;5073153;28;20170;-77
2022/01/11 08:24:23;;;;;;;9.90;6.47;;;4.00;1.00;;;;;;5073242;28;20183;-77
2022/01/11 08:26:53;;;;;;;10.10;6.20;;;4.10;1.00;;;;;;5061495;28;20537;-75
2022/01/11 08:29:25;;;;;;;16.10;7.17;;;4.20;1.00;;;;;;5054991;28;20650;-76
2022/01/11 08:31:51;;;;;;;14.10;7.10;;;4.20;1.00;;;;;;5053406;28;20779;-77
2022/01/11 08:34:19;;;;;;;15.20;6.80;;;4.30;1.00;;;;;;5052717;28;20425;-75
2022/01/11 08:36:55;;;;;;;12.37;6.20;;;4.30;1.00;;;;;;5066474;28;20414;-75
2022/01/11 08:39:25;;;;;;;15.87;6.43;;;4.50;1.00;;;;;;5053261;28;20448;-75
2022/01/11 08:41:55;;;;;;;22.13;7.77;;;4.50;1.00;;;;;;5071345;28;20424;-76
2022/01/11 08:44:25;;;;;;;14.32;6.97;;;4.50;1.00;;;;;;5059721;28;20437;-77
2022/01/11 08:46:55;;;;;;;16.97;7.17;;;4.60;1.00;;;;;;5053223;28;20558;-77
2022/01/11 08:49:22;;;;;;;12.70;6.77;;;4.60;1.00;;;;;;5069870;28;20421;-77
2022/01/11 08:51:47;;;;;;;15.57;7.00;;;4.70;1.00;;;;;;5066396;28;20498;-78
2022/01/11 08:54:25;;;;;;;12.80;7.40;;;4.70;1.00;;;;;;5068971;28;20959;-78
2022/01/11 08:56:55;;;;;;;12.57;6.70;;;4.80;1.00;;;;;;5053970;28;20265;-78
2022/01/11 08:59:25;;;;;;;16.17;7.27;;;4.80;1.00;;;;;;5053270;28;20449;-77
2022/01/11 09:01:53;;;;;;;13.03;7.30;;;4.90;1.00;;;;;;5054941;28;20757;-77
2022/01/11 09:04:26;;;;;;;21.47;7.73;;;5.00;1.00;;;;;;5064346;28;20459;-77
2022/01/11 09:06:57;;;;;;;18.70;7.33;;;5.10;1.00;;;;;;5058870;28;20517;-77
2022/01/11 09:09:28;;;;;;;18.37;7.70;;;5.10;1.00;;;;;;5057033;28;20501;-78
2022/01/11 09:11:54;;;;;;;14.07;7.80;;;5.30;1.00;;;;;;5055292;28;20417;-77
2022/01/11 09:14:20;;;;;;;18.33;8.40;;;5.30;1.00;;;;;;5056777;28;20722;-77
2022/01/11 09:16:47;;;;;;;13.40;7.30;;;5.40;1.00;;;;;;5070844;28;20413;-77
2022/01/11 09:19:15;;;;;;;17.03;8.23;;;5.40;1.00;;;;;;5064875;28;20488;-77
2022/01/11 09:21:43;;;;;;;16.17;8.23;;;5.50;1.00;;;;;;5068147;28;20423;-77
2022/01/11 09:24:10;;;;;;;16.40;8.30;;;5.60;1.00;;;;;;5054692;28;20421;-77
2022/01/11 09:26:37;;;;;;;20.20;9.00;;;5.70;1.00;;;;;;5054525;28;20410;-77
2022/01/11 09:29:03;;;;;;;23.70;9.13;;;5.80;1.00;;;;;;5070031;28;20864;-77
2022/01/11 09:31:30;;;;;;;25.40;9.47;;;;;;;;;;5065888;28;20438;-77
2022/01/11 09:33:55;;;;;;;21.63;9.23;;;5.90;1.00;;;;;;5086532;28;20440;-77
2022/01/11 09:36:38;;;;;;;13.03;7.60;;;6.00;1.00;;;;;;5062979;28;20437;-77
2022/01/11 09:39:04;;;;;;;15.80;6.43;;;6.10;1.00;;;;;;5064892;28;20267;-77
2022/01/11 09:41:58;;;;;;;15.10;7.87;;;6.10;1.00;;;;;;5054234;28;20410;-78
2022/01/11 09:44:26;;;;;;;18.80;9.40;;;6.20;1.00;;;;;;5060784;28;20511;-76
2022/01/11 09:46:53;;;;;;;17.00;7.40;;;6.20;1.00;;;;;;5066330;28;20406;-77
2022/01/11 09:49:19;;;;;;;14.10;7.50;;;6.30;1.00;;;;;;5067606;28;20836;-77
2022/01/11 09:51:45;;;;;;;11.73;7.30;;;6.40;1.00;;;;;;5062785;28;22324;-77
2022/01/11 09:54:38;;;;;;;19.00;7.67;;;6.40;1.00;;;;;;5063660;28;20413;-77
2022/01/11 09:57:08;;;;;;;14.90;7.80;;;6.50;1.00;;;;;;5049262;28;20643;-77
2022/01/11 09:59:49;;;;;;;17.23;7.67;;;6.50;1.00;;;;;;5067113;28;20850;-76
2022/01/11 10:02:31;;;;;;;33.80;7.80;;;6.60;1.00;;;;;;5063768;28;20402;-78
2022/01/11 10:05:14;;;;;;;21.53;8.73;;;6.70;1.00;;;;;;5052203;28;20401;-77
2022/01/11 10:07:55;;;;;;;16.77;7.57;;;6.70;1.00;;;;;;5061544;28;20410;-77
2022/01/11 10:10:23;;;;;;;13.37;6.90;;;6.80;1.00;;;;;;5075874;28;20385;-77
2022/01/11 10:13:03;;;;;;;15.40;7.50;;;6.80;1.00;;;;;;5057986;28;21011;-79
2022/01/11 10:15:35;;;;;;;14.53;7.83;;;6.90;1.00;;;;;;5074068;28;20486;-77
2022/01/11 10:18:02;;;;;;;25.57;8.53;;;7.00;1.00;;;;;;5066167;28;20436;-75
2022/01/11 10:20:37;;;;;;;19.57;7.90;;;7.00;1.00;;;;;;5060455;28;20449;-77
2022/01/11 10:23:33;;;;;;;16.13;7.87;;;7.00;1.00;;;;;;5070910;28;20915;-78
2022/01/11 10:25:59;;;;;;;15.43;7.47;;;7.20;1.00;;;;;;5069266;28;20824;-77
2022/01/11 10:28:37;;;;;;;18.27;8.07;;;7.20;1.00;;;;;;5055586;28;20481;-77
2022/01/11 10:31:02;;;;;;;17.93;8.30;;;7.30;1.00;;;;;;5055833;28;20414;-77
2022/01/11 10:33:28;;;;;;;17.20;7.30;;;7.30;1.00;;;;;;5046259;28;20579;-78
2022/01/11 10:35:54;;;;;;;16.10;7.20;;;7.50;1.00;;;;;;5051685;28;20231;-77
2022/01/11 10:38:30;;;;;;;20.30;7.60;;;7.60;1.00;;;;;;5046715;28;20658;-77
2022/01/11 10:40:56;;;;;;;15.13;8.43;;;7.50;1.00;;;;;;5041392;28;20167;-77
2022/01/11 10:43:23;;;;;;;12.83;7.37;;;7.40;1.00;;;;;;5045421;28;20423;-77
2022/01/11 10:45:53;;;;;;;13.70;6.97;;;7.50;1.00;;;;;;5051504;28;20176;-76
2022/01/11 10:48:22;;;;;;;11.90;6.77;;;7.50;1.00;;;;;;5057202;28;20423;-77
2022/01/11 10:50:51;;;;;;;10.13;6.70;;;7.50;1.00;;;;;;5050855;28;20422;-77
2022/01/11 10:53:24;;;;;;;16.50;7.83;;;7.50;1.00;;;;;;5053175;28;20425;-77
2022/01/11 10:55:51;;;;;;;15.97;7.57;;;7.50;1.00;;;;;;5053136;28;20472;-77
2022/01/11 10:58:18;;;;;;;18.50;7.83;;;7.70;1.00;;;;;;5058592;28;20909;-77
2022/01/11 11:00:49;;;;;;;12.77;6.90;;;7.70;1.00;;;;;;5058190;28;20484;-77
2022/01/11 11:03:17;;;;;;;13.43;6.87;;;7.70;1.00;;;;;;5061447;28;20410;-76
2022/01/11 11:05:53;;;;;;;13.77;6.90;;;7.70;1.00;;;;;;5061270;28;20439;-76
2022/01/11 11:08:20;;;;;;;12.63;7.40;;;8.30;1.00;;;;;;5064703;28;20401;-76
2022/01/11 11:10:49;;;;;;;19.90;6.40;;;7.70;1.00;;;;;;5079164;28;20430;-76
2022/01/11 11:13:22;;;;;;;10.80;7.00;;;7.80;1.00;;;;;;5059669;28;20426;-76
2022/01/11 11:15:50;;;;;;;13.43;6.90;;;7.80;1.00;;;;;;5054289;28;20724;-77
2022/01/11 11:18:27;;;;;;;10.53;6.20;;;7.90;1.00;;;;;;5055605;28;20414;-77
2022/01/11 11:20:54;;;;;;;9.60;5.90;;;7.80;1.00;;;;;;5056346;28;20429;-76
2022/01/11 11:23:20;;;;;;;10.47;5.87;;;7.80;1.00;;;;;;5053311;28;20924;-77
2022/01/11 11:25:46;;;;;;;12.57;6.93;;;7.60;1.00;;;;;;5059616;28;20417;-77
2022/01/11 11:28:12;;;;;;;15.00;6.57;;;7.60;1.00;;;;;;5061639;28;20486;-76
2022/01/11 11:30:38;;;;;;;15.23;7.60;;;7.60;1.00;;;;;;5058285;28;20449;-76
2022/01/11 11:33:04;;;;;;;13.13;7.03;;;7.60;1.00;;;;;;5062196;28;20429;-76
2022/01/11 11:35:30;;;;;;;12.50;7.20;;;7.60;1.00;;;;;;5054531;28;20469;-76
2022/01/11 11:38:02;;;;;;;14.07;7.23;;;7.70;1.00;;;;;;5062127;28;20174;-76
2022/01/11 11:40:30;;;;;;;13.73;7.20;;;7.70;1.00;;;;;;5068951;28;21022;-76
2022/01/11 11:42:59;;;;;;;20.00;7.20;;;7.70;1.00;;;;;;5057982;28;20426;-76
2022/01/11 11:45:36;;;;;;;11.33;6.80;;;7.80;1.00;;;;;;5086717;28;20417;-76
2022/01/11 11:48:08;;;;;;;10.50;5.43;;;7.70;1.00;;;;;;5071290;28;20413;-77
2022/01/11 11:50:45;;;;;;;23.70;7.30;;;7.80;1.00;;;;;;5064493;28;20929;-77
2022/01/11 11:53:24;;;;;;;15.10;7.07;;;7.70;1.00;;;;;;5054614;28;20445;-77
2022/01/11 11:55:50;;;;;;;21.80;6.90;;;7.70;1.00;;;;;;5054252;28;20512;-77
2022/01/11 11:58:22;;;;;;;10.30;6.33;;;7.70;1.00;;;;;;5050960;28;20513;-77
2022/01/11 12:00:50;;;;;;;12.70;6.80;;;7.80;1.00;;;;;;5056825;28;20461;-77
2022/01/11 12:03:16;;;;;;;12.40;6.40;;;7.80;1.00;;;;;;5071601;28;20495;-76
2022/01/11 12:05:47;;;;;;;14.07;6.87;;;9.30;1.00;;;;;;5058780;28;20437;-76
2022/01/11 12:08:34;;;;;;;9.77;6.23;;;7.80;1.00;;;;;;5059591;28;20229;-76
2022/01/11 12:11:21;;;;;;;12.43;6.30;;;7.80;1.00;;;;;;5060681;28;20417;-76
2022/01/11 12:13:50;;;;;;;11.10;5.97;;;7.90;1.00;;;;;;5059009;28;20448;-76
2022/01/11 12:16:25;;;;;;;13.80;7.60;;;8.10;1.00;;;;;;5072952;28;20413;-76
2022/01/11 12:18:54;;;;;;;9.60;6.00;;;8.10;1.00;;;;;;5073463;28;20498;-77
2022/01/11 12:21:21;;;;;;;12.50;7.27;;;8.20;1.00;;;;;;5072994;28;21042;-77
2022/01/11 12:23:49;;;;;;;11.40;5.87;;;8.20;1.00;;;;;;5073069;28;20478;-77
2022/01/11 12:26:19;;;;;;;11.47;5.80;;;8.30;1.00;;;;;;5072905;28;20555;-77
2022/01/11 12:29:09;;;;;;;10.67;5.80;;;8.30;1.00;;;;;;5072935;28;20415;-77
2022/01/11 12:31:36;;;;;;;11.00;6.63;;;8.30;1.00;;;;;;5028943;28;20808;-77
2022/01/11 12:34:02;;;;;;;8.77;5.43;;;8.40;1.00;;;;;;5011286;28;20457;-76
2022/01/11 12:36:50;;;;;;;7.77;5.40;;;8.40;1.00;;;;;;5005680;28;20495;-76
2022/01/11 12:39:16;;;;;;;10.20;5.40;;;8.40;1.00;;;;;;5010747;28;20518;-76
2022/01/11 12:41:50;;;;;;;10.57;5.97;;;8.40;1.00;;;;;;5019277;28;20847;-76
2022/01/11 12:47:13;;;;;;;11.30;5.33;;;8.30;1.00;;;;;;5012812;28;20934;-76
2022/01/11 12:49:59;;;;;;;8.33;5.40;;;8.30;1.00;;;;;;5020030;28;20439;-77
2022/01/11 12:52:25;;;;;;;17.10;5.67;;;8.40;1.00;;;;;;5018359;28;20455;-77
2022/01/11 12:55:08;;;;;;;11.10;5.57;;;8.40;1.00;;;;;;5024103;28;20450;-78
2022/01/11 12:57:43;;;;;;;10.10;5.17;;;8.30;1.00;;;;;;5017198;28;20189;-77
2022/01/11 13:00:20;;;;;;;10.23;5.60;;;8.30;1.00;;;;;;5011452;28;20459;-77
2022/01/11 13:02:50;;;;;;;9.60;5.03;;;8.30;1.00;;;;;;5011249;28;20463;-77
2022/01/11 13:05:21;;;;;;;6.30;4.60;;;8.30;1.00;;;;;;5012515;28;20481;-77
2022/01/11 13:08:08;;;;;;;9.53;5.10;;;8.50;1.00;;;;;;5019600;28;20504;-77
2022/01/11 13:10:34;;;;;;;10.03;5.40;;;8.40;1.00;;;;;;5047133;28;20421;-77
2022/01/11 13:13:13;;;;;;;10.67;5.97;;;8.50;1.00;;;;;;5043069;28;20437;-77
2022/01/11 13:15:49;;;;;;;10.70;5.50;;;8.60;1.00;;;;;;5049167;28;20160;-77
2022/01/11 13:18:21;;;;;;;9.30;4.03;;;8.50;1.00;;;;;;5054538;28;20432;-76
2022/01/11 13:21:07;;;;;;;13.30;4.83;;;8.60;1.00;;;;;;5052254;28;20521;-76
2022/01/11 13:23:44;;;;;;;10.60;5.80;;;8.60;1.00;;;;;;5050820;28;20712;-76
2022/01/11 13:26:19;;;;;;;7.83;4.40;;;8.60;1.00;;;;;;5056288;28;20807;-77
2022/01/11 13:28:53;;;;;;;7.77;5.07;;;8.60;1.00;;;;;;5056364;28;20766;-76
2022/01/11 13:31:36;;;;;;;11.07;5.80;;;8.70;1.00;;;;;;5058220;28;20413;-76